Hopeland, Pennsylvania
Current Conditions -  °F | °C
As of 10:53 PM on Tuesday 27 Jan 2015 (Local Time) from KLNS Reporting Station
Clear Clear  
Wind Chill:   Ceiling: Unl
Heat Index: 17°   Visibility: 10mi
Dew Point:   Wind: 14mph
Humidity: 59%   Direction: 330°NNW
Pressure: 29.94"   Gusts: 24mph
Location:  40.23°N, 76.26°W
Report Text: KLNS 280353Z AUTO 33012G21KT 10SM CLR M08/M15 A2994 RMK AO2 SLP145 T10831150
Loading
Personal Weather Stations






























Interactive Weather Map New forecast layout! Learn more

10-Day Weather Forecast

Advertisements
Track Severe Weather on mobile